createdAt,value
2023-04-29T00:00:40.005Z,11.07
2023-04-29T00:03:21.530Z,13.75
2023-04-29T00:05:50.037Z,12.07
2023-04-29T00:08:18.466Z,12.48
2023-04-29T00:11:05.127Z,12.40
2023-04-29T00:13:56.083Z,16.80
2023-04-29T00:16:27.019Z,13.23
2023-04-29T00:18:55.593Z,13.02
2023-04-29T00:21:24.780Z,10.77
2023-04-29T00:23:54.795Z,11.52
2023-04-29T00:26:28.380Z,11.07
2023-04-29T00:28:56.623Z,12.77
2023-04-29T00:31:28.524Z,10.95
2023-04-29T00:33:57.487Z,13.63
2023-04-29T00:36:30.789Z,11.77
2023-04-29T00:38:59.383Z,11.50
2023-04-29T00:41:29.445Z,10.50
2023-04-29T00:44:02.763Z,11.35
2023-04-29T00:46:31.146Z,11.02
2023-04-29T00:49:00.809Z,10.75
2023-04-29T00:51:39.201Z,12.98
2023-04-29T00:54:10.146Z,11.60
2023-04-29T00:56:51.769Z,10.82
2023-04-29T00:59:22.697Z,10.20
2023-04-29T01:01:50.960Z,11.15
2023-04-29T01:04:19.802Z,13.02
2023-04-29T01:07:00.390Z,12.50
2023-04-29T01:09:47.106Z,13.45
2023-04-29T01:12:21.663Z,10.88
2023-04-29T01:14:55.995Z,11.18
2023-04-29T01:17:28.961Z,12.13
2023-04-29T01:20:00.629Z,11.57
2023-04-29T01:22:31.500Z,12.63
2023-04-29T01:25:01.513Z,11.45
2023-04-29T01:27:37.970Z,12.77
2023-04-29T01:30:18.593Z,13.27
2023-04-29T01:33:12.264Z,13.30
2023-04-29T01:35:52.824Z,12.50
2023-04-29T01:38:35.480Z,11.63
2023-04-29T01:41:16.387Z,12.63
2023-04-29T01:43:53.059Z,13.20
2023-04-29T01:46:21.439Z,12.38
2023-04-29T01:48:53.185Z,13.93
2023-04-29T01:51:21.905Z,16.08
2023-04-29T01:53:49.862Z,13.40
2023-04-29T01:56:19.182Z,12.18
2023-04-29T01:59:08.117Z,13.35
2023-04-29T02:01:36.330Z,12.65
2023-04-29T02:04:10.757Z,14.15
2023-04-29T02:06:39.154Z,14.32
2023-04-29T02:09:16.205Z,15.45
2023-04-29T02:11:46.318Z,15.20
2023-04-29T02:14:18.920Z,14.32
2023-04-29T02:16:51.032Z,15.32
2023-04-29T02:19:19.372Z,14.52
2023-04-29T02:21:48.837Z,18.45
2023-04-29T02:24:18.981Z,18.08
2023-04-29T02:26:56.919Z,16.08
2023-04-29T02:29:26.590Z,15.90
2023-04-29T02:31:57.534Z,17.33
2023-04-29T02:34:26.377Z,16.08
2023-04-29T02:36:56.961Z,18.00
2023-04-29T02:39:31.356Z,18.77
2023-04-29T02:42:06.308Z,17.45
2023-04-29T02:44:37.346Z,19.23
2023-04-29T02:47:05.156Z,20.65
2023-04-29T02:49:33.079Z,19.08
2023-04-29T02:52:01.401Z,18.35
2023-04-29T02:54:31.280Z,19.52
2023-04-29T02:57:04.328Z,25.17
2023-04-29T02:59:35.341Z,23.35
2023-04-29T03:02:04.286Z,21.23
2023-04-29T03:04:35.053Z,23.02
2023-04-29T03:07:02.994Z,22.17
2023-04-29T03:09:33.753Z,22.52
2023-04-29T03:12:03.925Z,23.90
2023-04-29T03:14:34.269Z,25.33
2023-04-29T03:17:06.067Z,25.77
2023-04-29T03:19:34.254Z,19.90
2023-04-29T03:22:02.306Z,22.33
2023-04-29T03:24:36.588Z,24.50
2023-04-29T03:27:06.831Z,25.05
2023-04-29T03:29:34.825Z,24.30
2023-04-29T03:32:02.854Z,24.95
2023-04-29T03:34:31.328Z,29.80
2023-04-29T03:36:59.283Z,28.08
2023-04-29T03:39:28.230Z,27.77
2023-04-29T03:41:56.178Z,25.75
2023-04-29T03:44:25.722Z,28.35
2023-04-29T03:46:53.835Z,27.15
2023-04-29T03:49:21.943Z,31.60
2023-04-29T03:51:49.968Z,27.52
2023-04-29T03:54:18.298Z,30.50
2023-04-29T03:56:46.520Z,29.23
2023-04-29T03:59:15.431Z,27.70
2023-04-29T04:01:45.066Z,29.98
2023-04-29T04:04:13.868Z,29.67
2023-04-29T04:06:43.996Z,32.35
2023-04-29T04:09:12.042Z,29.30
2023-04-29T04:11:40.767Z,29.27
2023-04-29T04:14:11.628Z,30.83
2023-04-29T04:16:40.275Z,29.80
2023-04-29T04:19:10.808Z,35.03
2023-04-29T04:21:38.654Z,32.45
2023-04-29T04:24:07.345Z,32.65
2023-04-29T04:26:37.634Z,38.58
2023-04-29T04:29:05.504Z,35.25
2023-04-29T04:31:34.675Z,31.70
2023-04-29T04:34:02.540Z,32.28
2023-04-29T04:36:32.756Z,34.92
2023-04-29T04:39:01.218Z,37.60
2023-04-29T04:41:31.583Z,32.95
2023-04-29T04:43:59.838Z,36.03
2023-04-29T04:46:28.278Z,38.42
2023-04-29T04:48:56.233Z,36.53
2023-04-29T04:51:24.296Z,35.40
2023-04-29T04:53:53.598Z,40.58
2023-04-29T04:56:21.971Z,37.28
2023-04-29T04:58:49.930Z,35.72
2023-04-29T05:01:18.084Z,37.53
2023-04-29T05:03:46.268Z,37.25
2023-04-29T05:06:14.168Z,43.25
2023-04-29T05:08:42.011Z,37.47
2023-04-29T05:11:19.501Z,41.03
2023-04-29T05:13:47.791Z,43.38
2023-04-29T05:16:17.533Z,42.55
2023-04-29T05:18:46.637Z,44.63
2023-04-29T05:21:22.495Z,42.10
2023-04-29T05:23:50.550Z,45.95
2023-04-29T05:26:19.923Z,46.03
2023-04-29T05:28:53.540Z,48.88
2023-04-29T05:31:26.306Z,45.53
2023-04-29T05:33:54.438Z,45.92
2023-04-29T05:36:24.993Z,51.03
2023-04-29T05:38:53.052Z,53.58
2023-04-29T05:41:27.132Z,47.35
2023-04-29T05:43:57.094Z,47.47
2023-04-29T05:46:30.317Z,48.78
2023-04-29T05:49:00.829Z,45.25
2023-04-29T05:51:35.064Z,44.47
2023-04-29T05:54:03.415Z,39.90
2023-04-29T05:56:35.025Z,40.85
2023-04-29T05:59:05.404Z,36.95
2023-04-29T06:01:34.088Z,36.67
2023-04-29T06:04:02.990Z,34.50
2023-04-29T06:06:34.520Z,35.33
2023-04-29T06:09:05.285Z,35.85
2023-04-29T06:11:39.016Z,34.65
2023-04-29T06:14:07.120Z,33.75
2023-04-29T06:16:35.293Z,32.85
2023-04-29T06:19:04.985Z,31.55
2023-04-29T06:21:33.266Z,27.90
2023-04-29T06:24:01.274Z,22.48
2023-04-29T06:26:29.303Z,25.17
2023-04-29T06:28:58.825Z,22.42
2023-04-29T06:31:27.596Z,22.52
2023-04-29T06:33:55.992Z,23.27
2023-04-29T06:36:23.830Z,18.42
2023-04-29T06:38:51.666Z,19.27
2023-04-29T06:41:20.033Z,20.50
2023-04-29T06:43:48.970Z,18.50
2023-04-29T06:46:18.442Z,20.50
2023-04-29T06:48:46.485Z,19.85
2023-04-29T06:51:17.294Z,19.35
2023-04-29T06:53:55.635Z,18.13
2023-04-29T06:56:23.960Z,17.58
2023-04-29T06:58:54.439Z,21.83
2023-04-29T07:01:24.091Z,18.77
2023-04-29T07:03:52.222Z,16.60
2023-04-29T07:06:20.629Z,17.67
2023-04-29T07:08:48.399Z,17.20
2023-04-29T07:11:16.736Z,18.67
2023-04-29T07:13:44.703Z,14.73
2023-04-29T07:16:18.251Z,15.00
2023-04-29T07:18:48.022Z,12.57
2023-04-29T07:21:21.256Z,13.15
2023-04-29T07:23:52.903Z,13.63
2023-04-29T07:26:21.684Z,13.35
2023-04-29T07:28:52.329Z,12.85
2023-04-29T07:31:21.757Z,12.90
2023-04-29T07:33:51.225Z,13.73
2023-04-29T07:36:19.229Z,16.85
2023-04-29T07:38:47.112Z,15.93
2023-04-29T07:41:18.731Z,14.27
2023-04-29T07:43:46.908Z,16.73
2023-04-29T07:46:16.531Z,16.40
2023-04-29T07:48:47.152Z,18.33
2023-04-29T07:51:18.175Z,17.02
2023-04-29T07:53:53.295Z,17.20
2023-04-29T07:56:23.778Z,19.88
2023-04-29T07:58:54.609Z,17.52
2023-04-29T08:01:22.528Z,18.77
2023-04-29T08:03:51.834Z,19.77
2023-04-29T08:06:23.559Z,19.45
2023-04-29T08:08:53.286Z,22.42
2023-04-29T08:11:24.419Z,25.27
2023-04-29T08:14:03.237Z,24.60
2023-04-29T08:16:31.782Z,29.50
2023-04-29T08:18:59.644Z,29.75
2023-04-29T08:21:29.071Z,32.78
2023-04-29T08:23:57.860Z,29.98
2023-04-29T08:26:39.424Z,31.25
2023-04-29T08:29:10.082Z,32.30
2023-04-29T08:31:38.121Z,28.20
2023-04-29T08:34:09.822Z,29.95
2023-04-29T08:36:39.812Z,30.63
2023-04-29T08:39:11.466Z,39.10
2023-04-29T08:41:43.268Z,42.28
2023-04-29T08:44:12.089Z,40.90
2023-04-29T08:46:45.808Z,42.05
2023-04-29T08:49:17.236Z,46.03
2023-04-29T08:51:49.148Z,37.42
2023-04-29T08:54:17.013Z,39.00
2023-04-29T08:56:47.421Z,40.80
2023-04-29T08:59:16.343Z,41.03
2023-04-29T09:01:49.656Z,47.20
2023-04-29T09:04:27.078Z,35.97
2023-04-29T09:06:59.053Z,42.10
2023-04-29T09:09:27.484Z,39.30
2023-04-29T09:11:56.904Z,37.60
2023-04-29T09:14:25.780Z,36.90
2023-04-29T09:17:07.089Z,34.35
2023-04-29T09:19:39.701Z,34.20
2023-04-29T09:22:13.248Z,28.55
2023-04-29T09:24:43.237Z,29.40
2023-04-29T09:27:11.921Z,28.33
2023-04-29T09:29:40.930Z,27.42
2023-04-29T09:32:21.909Z,25.63
2023-04-29T09:34:50.444Z,25.45
2023-04-29T09:37:27.888Z,28.85
2023-04-29T09:39:56.573Z,26.38
2023-04-29T09:42:27.696Z,28.90
2023-04-29T09:44:56.404Z,28.73
2023-04-29T09:47:31.953Z,28.30
2023-04-29T09:50:12.644Z,31.13
2023-04-29T09:52:48.309Z,29.52
2023-04-29T09:55:25.931Z,26.80
2023-04-29T09:58:00.574Z,26.20
2023-04-29T10:00:41.098Z,27.10
2023-04-29T10:03:09.413Z,25.27
2023-04-29T10:05:38.045Z,27.40
2023-04-29T10:08:15.752Z,25.65
2023-04-29T10:10:48.862Z,23.08
2023-04-29T10:13:25.669Z,21.50
2023-04-29T10:16:04.587Z,21.65
2023-04-29T10:18:49.092Z,24.67
2023-04-29T10:21:24.818Z,21.52
2023-04-29T10:23:56.631Z,22.10
2023-04-29T10:26:34.071Z,20.17
2023-04-29T10:29:06.757Z,19.85
2023-04-29T10:31:36.430Z,21.25
2023-04-29T10:34:04.480Z,21.27
2023-04-29T10:36:34.554Z,21.90
2023-04-29T10:39:13.203Z,20.50
2023-04-29T10:41:47.047Z,19.92
2023-04-29T10:44:15.250Z,20.75
2023-04-29T10:46:43.204Z,19.60
2023-04-29T10:49:12.384Z,19.75
2023-04-29T10:51:51.340Z,19.02
2023-04-29T10:54:36.110Z,16.45
2023-04-29T10:57:11.316Z,17.67
2023-04-29T10:59:54.525Z,19.25
2023-04-29T11:02:23.955Z,13.95
2023-04-29T11:05:12.502Z,15.75
2023-04-29T11:07:44.612Z,15.73
2023-04-29T11:10:14.401Z,22.02
2023-04-29T11:12:47.452Z,16.85
2023-04-29T11:15:19.944Z,20.15
2023-04-29T11:17:49.666Z,17.95
2023-04-29T11:20:18.459Z,19.73
2023-04-29T11:22:53.365Z,22.40
2023-04-29T11:25:30.706Z,16.98
2023-04-29T11:28:00.063Z,16.65
2023-04-29T11:30:31.528Z,15.80
2023-04-29T11:33:01.395Z,15.30
2023-04-29T11:35:32.445Z,12.90
2023-04-29T11:38:04.240Z,14.85
2023-04-29T11:40:39.727Z,15.10
2023-04-29T11:43:11.145Z,12.90
2023-04-29T11:45:55.059Z,10.40
2023-04-29T11:48:38.106Z,8.18
2023-04-29T11:51:06.481Z,6.88
2023-04-29T11:53:35.752Z,9.27
2023-04-29T11:56:10.718Z,7.50
2023-04-29T11:58:41.358Z,7.35
2023-04-29T12:01:09.482Z,6.30
2023-04-29T12:03:39.186Z,7.40
2023-04-29T12:06:08.432Z,6.55
2023-04-29T12:08:45.383Z,9.35
2023-04-29T12:11:19.854Z,5.97
2023-04-29T12:13:56.395Z,8.95
2023-04-29T12:16:41.250Z,7.25
2023-04-29T12:19:16.107Z,7.22
2023-04-29T12:21:52.422Z,6.63
2023-04-29T12:24:23.765Z,8.93
2023-04-29T12:26:56.284Z,8.18
2023-04-29T12:29:35.438Z,8.85
2023-04-29T12:32:03.869Z,14.15
2023-04-29T12:34:34.457Z,12.68
2023-04-29T12:37:03.053Z,12.20
2023-04-29T12:39:35.861Z,12.40
2023-04-29T12:42:12.990Z,12.25
2023-04-29T12:44:53.102Z,12.50
2023-04-29T12:47:22.732Z,11.75
2023-04-29T12:50:00.789Z,14.32
2023-04-29T12:52:33.308Z,14.07
2023-04-29T12:55:05.611Z,12.60
2023-04-29T12:57:41.536Z,12.07
2023-04-29T13:00:16.053Z,9.88
2023-04-29T13:02:44.655Z,11.23
2023-04-29T13:05:13.691Z,11.05
2023-04-29T13:07:41.632Z,12.70
2023-04-29T13:10:12.120Z,11.68
2023-04-29T13:12:45.926Z,12.13
2023-04-29T13:15:17.105Z,9.43
2023-04-29T13:17:58.989Z,13.98
2023-04-29T13:20:29.893Z,10.68
2023-04-29T13:23:05.370Z,12.90
2023-04-29T13:25:36.946Z,10.60
2023-04-29T13:28:11.585Z,9.13
2023-04-29T13:30:39.789Z,10.23
2023-04-29T13:33:12.094Z,9.95
2023-04-29T13:35:47.053Z,16.98
2023-04-29T13:38:15.091Z,12.20
2023-04-29T13:40:46.798Z,9.77
2023-04-29T13:43:26.298Z,12.65
2023-04-29T13:46:06.803Z,11.40
2023-04-29T13:49:16.078Z,7.85
2023-04-29T13:57:46.794Z,12.27
2023-04-29T13:59:52.201Z,8.02
2023-04-29T14:02:25.777Z,11.38
2023-04-29T14:04:57.270Z,8.73
2023-04-29T14:07:31.640Z,10.25
2023-04-29T14:10:06.054Z,7.28
2023-04-29T14:12:50.123Z,9.07
2023-04-29T14:15:28.984Z,10.05
2023-04-29T14:18:03.553Z,7.68
2023-04-29T14:20:38.434Z,9.05
2023-04-29T14:23:16.082Z,9.93
2023-04-29T14:25:47.459Z,10.90
2023-04-29T14:28:15.607Z,8.00
2023-04-29T14:30:56.028Z,9.23
2023-04-29T14:33:25.908Z,9.20
2023-04-29T14:35:53.875Z,9.65
2023-04-29T14:38:21.719Z,7.20
2023-04-29T14:40:50.037Z,9.88
2023-04-29T14:43:18.467Z,9.63
2023-04-29T14:45:48.352Z,8.40
2023-04-29T14:48:21.426Z,9.57
2023-04-29T14:50:49.653Z,8.88
2023-04-29T14:53:17.536Z,9.48
2023-04-29T14:55:46.215Z,9.27
2023-04-29T14:58:30.156Z,7.75
2023-04-29T15:01:00.390Z,8.70
2023-04-29T15:03:28.482Z,8.93
2023-04-29T15:06:00.059Z,12.15
2023-04-29T15:08:28.121Z,11.15
2023-04-29T15:10:57.201Z,9.30
2023-04-29T15:13:24.965Z,8.48
2023-04-29T15:15:55.719Z,7.95
2023-04-29T15:18:27.709Z,6.72
2023-04-29T15:20:56.280Z,7.15
2023-04-29T15:23:24.489Z,11.15
2023-04-29T15:25:55.708Z,5.18
2023-04-29T15:28:24.796Z,8.55
2023-04-29T15:30:54.155Z,6.35
2023-04-29T15:33:23.692Z,6.45
2023-04-29T15:36:08.546Z,4.95
2023-04-29T15:38:37.121Z,7.07
2023-04-29T15:41:05.028Z,8.35
2023-04-29T15:43:33.531Z,7.07
2023-04-29T15:46:01.853Z,9.30
2023-04-29T15:48:30.390Z,6.30
2023-04-29T15:50:58.735Z,5.50
2023-04-29T15:53:38.640Z,6.55
2023-04-29T15:56:19.517Z,6.97
2023-04-29T15:58:49.992Z,5.00
2023-04-29T16:01:18.561Z,6.10
2023-04-29T16:03:46.799Z,6.53
2023-04-29T16:06:14.700Z,6.60
2023-04-29T16:08:44.791Z,6.63
2023-04-29T16:11:22.280Z,6.10
2023-04-29T16:13:50.742Z,6.20
2023-04-29T16:16:21.578Z,6.53
2023-04-29T16:18:52.825Z,6.35
2023-04-29T16:21:21.256Z,3.85
2023-04-29T16:23:54.801Z,5.38
2023-04-29T16:26:22.758Z,4.43
2023-04-29T16:28:50.550Z,4.70
2023-04-29T16:31:21.338Z,6.55
2023-04-29T16:34:06.039Z,6.03
2023-04-29T16:36:34.553Z,8.00
2023-04-29T16:39:04.721Z,5.65
2023-04-29T16:41:32.839Z,5.45
2023-04-29T16:44:00.757Z,8.38
2023-04-29T16:46:29.831Z,4.90
2023-04-29T16:48:57.634Z,4.97
2023-04-29T16:51:26.422Z,4.45
2023-04-29T16:53:54.633Z,5.40
2023-04-29T16:56:27.142Z,8.68
2023-04-29T16:58:54.921Z,8.85
2023-04-29T17:01:25.221Z,5.88
2023-04-29T17:03:55.081Z,8.05
2023-04-29T17:06:23.038Z,6.10
2023-04-29T17:08:51.834Z,5.10
2023-04-29T17:11:19.788Z,5.57
2023-04-29T17:13:52.125Z,5.22
2023-04-29T17:16:20.130Z,4.88
2023-04-29T17:18:48.033Z,3.45
2023-04-29T17:21:15.862Z,4.60
2023-04-29T17:23:46.305Z,4.38
2023-04-29T17:26:14.117Z,5.28
2023-04-29T17:28:42.192Z,4.63
2023-04-29T17:31:11.596Z,3.38
2023-04-29T17:33:42.586Z,8.35
2023-04-29T17:36:10.608Z,4.05
2023-04-29T17:38:38.431Z,9.80
2023-04-29T17:41:06.551Z,7.28
2023-04-29T17:43:35.524Z,6.30
2023-04-29T17:46:06.752Z,4.88
2023-04-29T17:48:38.850Z,4.93
2023-04-29T17:51:07.006Z,4.22
2023-04-29T17:53:34.833Z,4.20
2023-04-29T17:56:02.695Z,5.20
2023-04-29T17:58:30.636Z,3.45
2023-04-29T18:00:59.265Z,5.13
2023-04-29T18:03:30.925Z,2.97
2023-04-29T18:06:00.539Z,5.70
2023-04-29T18:08:28.501Z,3.67
2023-04-29T18:11:02.517Z,4.07
2023-04-29T18:13:30.475Z,4.40
2023-04-29T18:16:02.337Z,5.72
2023-04-29T18:18:30.214Z,7.30
2023-04-29T18:20:58.308Z,5.20
2023-04-29T18:23:27.631Z,4.80
2023-04-29T18:25:55.809Z,5.07
2023-04-29T18:28:25.563Z,6.53
2023-04-29T18:30:59.055Z,6.57
2023-04-29T18:33:27.081Z,6.80
2023-04-29T18:35:55.792Z,9.48
2023-04-29T18:38:23.900Z,5.80
2023-04-29T18:40:53.351Z,6.10
2023-04-29T18:43:24.586Z,5.50
2023-04-29T18:45:52.642Z,5.82
2023-04-29T18:48:20.549Z,3.60
2023-04-29T18:50:48.516Z,4.68
2023-04-29T18:53:16.351Z,5.20
2023-04-29T18:55:44.262Z,4.60
2023-04-29T18:58:14.123Z,6.45
2023-04-29T19:00:41.937Z,6.47
2023-04-29T19:03:10.440Z,5.90
2023-04-29T19:05:38.213Z,5.10
2023-04-29T19:08:06.548Z,5.68
2023-04-29T19:10:34.507Z,4.80
2023-04-29T19:13:02.267Z,5.55
2023-04-29T19:15:32.137Z,5.22
2023-04-29T19:18:00.510Z,9.32
2023-04-29T19:20:28.808Z,10.25
2023-04-29T19:22:56.802Z,7.55
2023-04-29T19:25:26.156Z,8.00
2023-04-29T19:27:54.281Z,9.02
2023-04-29T19:30:22.125Z,8.55
2023-04-29T19:32:51.639Z,8.07
2023-04-29T19:35:19.454Z,7.63
2023-04-29T19:37:47.468Z,6.45
2023-04-29T19:40:15.466Z,7.20
2023-04-29T19:42:43.422Z,8.45
2023-04-29T19:45:12.605Z,9.00
2023-04-29T19:47:40.699Z,8.40
2023-04-29T19:50:10.822Z,11.18
2023-04-29T19:52:38.713Z,7.53
2023-04-29T19:55:08.832Z,7.38
2023-04-29T19:57:38.187Z,7.90
2023-04-29T20:00:07.708Z,6.68
2023-04-29T20:02:35.703Z,9.02
2023-04-29T20:05:03.640Z,10.38
2023-04-29T20:07:32.855Z,8.45
2023-04-29T20:10:00.998Z,11.70
2023-04-29T20:12:28.830Z,8.32
2023-04-29T20:14:56.950Z,8.13
2023-04-29T20:17:24.856Z,8.55
2023-04-29T20:19:52.936Z,12.20
2023-04-29T20:22:21.149Z,11.55
2023-04-29T20:24:50.495Z,9.68
2023-04-29T20:27:18.258Z,9.32
2023-04-29T20:29:46.145Z,9.25
2023-04-29T20:32:13.942Z,7.38
2023-04-29T20:34:41.892Z,7.00
2023-04-29T20:37:09.994Z,7.68
2023-04-29T20:39:39.060Z,8.38
2023-04-29T20:42:08.291Z,8.50
2023-04-29T20:44:36.748Z,7.43
2023-04-29T20:47:04.543Z,8.88
2023-04-29T20:49:32.320Z,8.63
2023-04-29T20:52:00.962Z,8.07
2023-04-29T20:54:28.756Z,8.90
2023-04-29T20:56:56.574Z,11.57
2023-04-29T20:59:25.842Z,11.57
2023-04-29T21:01:53.693Z,10.93
2023-04-29T21:04:21.991Z,10.87
2023-04-29T21:06:50.715Z,11.53
2023-04-29T21:09:19.152Z,11.27
2023-04-29T21:11:46.998Z,10.00
2023-04-29T21:14:14.859Z,6.03
2023-04-29T21:16:44.156Z,8.37
2023-04-29T21:19:11.957Z,7.27
2023-04-29T21:21:39.820Z,6.40
2023-04-29T21:24:07.768Z,6.77
2023-04-29T21:26:35.737Z,8.97
2023-04-29T21:29:04.504Z,6.87
2023-04-29T21:31:32.573Z,6.57
2023-04-29T21:34:01.993Z,6.60
2023-04-29T21:36:32.021Z,5.90
2023-04-29T21:38:59.841Z,7.07
2023-04-29T21:41:33.587Z,4.97
2023-04-29T21:44:02.949Z,6.70
2023-04-29T21:46:33.176Z,4.87
2023-04-29T21:49:03.648Z,6.23
2023-04-29T21:51:32.299Z,6.13
2023-04-29T21:54:00.169Z,7.77
2023-04-29T21:56:27.849Z,5.57
2023-04-29T21:58:55.594Z,5.80
2023-04-29T22:01:40.457Z,6.50
2023-04-29T22:04:10.022Z,5.97
2023-04-29T22:06:38.443Z,7.43
2023-04-29T22:09:06.601Z,6.47
2023-04-29T22:11:34.803Z,8.03
2023-04-29T22:14:02.594Z,6.40
2023-04-29T22:16:30.435Z,5.57
2023-04-29T22:19:02.081Z,7.77
2023-04-29T22:21:31.638Z,8.60
2023-04-29T22:23:59.657Z,4.23
2023-04-29T22:26:27.458Z,5.90
2023-04-29T22:28:56.776Z,5.63
2023-04-29T22:31:24.634Z,5.10
2023-04-29T22:33:52.736Z,5.37
2023-04-29T22:36:20.683Z,5.63
2023-04-29T22:38:49.814Z,9.50
2023-04-29T22:41:18.807Z,8.20
2023-04-29T22:43:47.128Z,5.10
2023-04-29T22:46:15.057Z,4.73
2023-04-29T22:48:42.875Z,6.43
2023-04-29T22:51:10.775Z,7.90
2023-04-29T22:53:38.691Z,6.40
2023-04-29T22:56:08.211Z,6.53
2023-04-29T22:58:36.060Z,4.90
2023-04-29T23:01:03.926Z,4.80
2023-04-29T23:03:31.886Z,7.50
2023-04-29T23:06:00.313Z,7.30
2023-04-29T23:08:28.196Z,6.33
2023-04-29T23:10:56.045Z,9.43
2023-04-29T23:13:25.235Z,4.87
2023-04-29T23:15:56.535Z,6.83
2023-04-29T23:18:24.456Z,5.57
2023-04-29T23:20:53.010Z,6.67
2023-04-29T23:23:21.291Z,6.17
2023-04-29T23:25:49.809Z,7.13
2023-04-29T23:28:17.612Z,4.47
2023-04-29T23:30:48.883Z,10.20
2023-04-29T23:33:16.808Z,8.40
2023-04-29T23:35:49.621Z,6.77
2023-04-29T23:38:17.545Z,6.43
2023-04-29T23:40:46.233Z,5.83
2023-04-29T23:43:14.883Z,4.33
2023-04-29T23:45:48.199Z,6.67
2023-04-29T23:48:17.392Z,6.57
2023-04-29T23:50:47.010Z,5.07
2023-04-29T23:53:15.789Z,4.17
2023-04-29T23:55:43.844Z,6.27
2023-04-29T23:58:11.560Z,6.87
